createdAt,value
2023-03-27T00:01:16.308Z,99.90
2023-03-27T00:05:20.232Z,99.90
2023-03-27T00:09:22.033Z,99.90
2023-03-27T00:13:24.122Z,99.90
2023-03-27T00:17:25.807Z,99.90
2023-03-27T00:21:28.085Z,99.90
2023-03-27T00:25:30.226Z,99.90
2023-03-27T00:29:31.968Z,99.90
2023-03-27T00:33:33.622Z,99.90
2023-03-27T00:37:36.315Z,99.90
2023-03-27T00:41:38.054Z,99.90
2023-03-27T00:45:39.724Z,99.90
2023-03-27T00:49:41.647Z,99.90
2023-03-27T00:53:43.875Z,99.90
2023-03-27T00:57:51.418Z,99.90
2023-03-27T01:01:53.415Z,99.90
2023-03-27T01:05:57.473Z,99.90
2023-03-27T01:09:59.836Z,99.90
2023-03-27T01:14:11.986Z,99.90
2023-03-27T01:18:28.589Z,99.90
2023-03-27T01:22:36.330Z,99.90
2023-03-27T01:26:59.869Z,99.90
2023-03-27T01:31:27.566Z,99.90
2023-03-27T01:36:04.332Z,99.90
2023-03-27T01:40:12.647Z,99.90
2023-03-27T01:44:36.506Z,99.90
2023-03-27T01:48:58.718Z,99.90
2023-03-27T01:53:13.385Z,99.90
2023-03-27T01:57:23.131Z,99.90
2023-03-27T02:01:30.979Z,99.90
2023-03-27T02:05:42.391Z,99.90
2023-03-27T02:09:52.429Z,99.90
2023-03-27T02:14:19.908Z,99.90
2023-03-27T02:18:30.005Z,99.90
2023-03-27T02:22:37.827Z,99.90
2023-03-27T02:26:41.093Z,99.90
2023-03-27T02:31:34.132Z,99.90
2023-03-27T02:35:28.346Z,99.90
2023-03-27T02:39:49.279Z,99.90
2023-03-27T02:43:57.886Z,99.90
2023-03-27T02:48:18.066Z,99.90
2023-03-27T02:52:28.486Z,99.90
2023-03-27T02:56:32.467Z,99.90
2023-03-27T03:00:40.114Z,99.90
2023-03-27T03:04:56.977Z,99.90
2023-03-27T03:09:02.071Z,99.90
2023-03-27T03:13:04.013Z,99.90
2023-03-27T03:17:06.048Z,99.90
2023-03-27T03:21:08.718Z,99.90
2023-03-27T03:25:13.301Z,99.90
2023-03-27T03:29:14.968Z,99.90
2023-03-27T03:33:18.065Z,99.90
2023-03-27T03:37:20.284Z,99.90
2023-03-27T03:41:21.929Z,99.90
2023-03-27T03:45:24.227Z,99.90
2023-03-27T03:49:26.041Z,99.90
2023-03-27T03:53:27.840Z,99.90
2023-03-27T03:57:29.926Z,99.90
2023-03-27T04:01:31.731Z,99.90
2023-03-27T04:05:34.078Z,99.90
2023-03-27T04:09:35.697Z,99.90
2023-03-27T04:13:37.320Z,99.90
2023-03-27T04:17:39.582Z,99.90
2023-03-27T04:21:42.289Z,99.90
2023-03-27T04:25:48.111Z,99.90
2023-03-27T04:29:49.804Z,99.90
2023-03-27T04:33:52.177Z,99.90
2023-03-27T04:37:54.089Z,99.90
2023-03-27T04:41:58.252Z,99.90
2023-03-27T04:45:59.937Z,99.90
2023-03-27T04:50:01.594Z,99.90
2023-03-27T04:54:07.306Z,99.90
2023-03-27T04:58:09.001Z,99.90
2023-03-27T05:02:12.820Z,99.90
2023-03-27T05:06:15.105Z,99.90
2023-03-27T05:10:17.282Z,99.90
2023-03-27T05:14:23.968Z,99.90
2023-03-27T05:18:26.354Z,99.90
2023-03-27T05:22:28.006Z,99.90
2023-03-27T05:26:29.672Z,99.90
2023-03-27T05:30:31.605Z,99.90
2023-03-27T05:34:34.548Z,99.90
2023-03-27T05:38:36.210Z,99.90
2023-03-27T05:42:42.658Z,99.90
2023-03-27T05:46:44.357Z,99.90
2023-03-27T05:50:46.133Z,99.90
2023-03-27T05:54:47.870Z,99.90
2023-03-27T05:58:49.592Z,99.90
2023-03-27T06:02:58.013Z,99.90
2023-03-27T06:07:02.330Z,99.90
2023-03-27T06:11:15.154Z,99.90
2023-03-27T06:15:16.939Z,99.90
2023-03-27T06:19:18.610Z,99.90
2023-03-27T06:23:20.228Z,99.90
2023-03-27T06:27:21.979Z,99.90
2023-03-27T06:31:24.447Z,99.90
2023-03-27T06:35:28.952Z,99.90
2023-03-27T06:39:30.698Z,99.90
2023-03-27T06:43:32.363Z,99.90
2023-03-27T06:47:41.459Z,99.90
2023-03-27T06:51:49.804Z,99.90
2023-03-27T06:55:51.748Z,99.90
2023-03-27T06:59:53.425Z,99.90
2023-03-27T07:03:55.057Z,99.90
2023-03-27T07:07:57.522Z,99.90
2023-03-27T07:11:59.231Z,99.90
2023-03-27T07:16:00.918Z,99.90
2023-03-27T07:20:03.890Z,99.90
2023-03-27T07:24:05.726Z,99.90
2023-03-27T07:28:10.386Z,99.90
2023-03-27T07:32:15.076Z,99.90
2023-03-27T07:36:18.827Z,99.90
2023-03-27T07:40:29.546Z,99.90
2023-03-27T07:44:38.886Z,99.90
2023-03-27T07:48:41.130Z,99.90
2023-03-27T07:52:44.594Z,99.90
2023-03-27T07:56:46.308Z,99.90
2023-03-27T08:00:52.562Z,99.90
2023-03-27T08:04:55.144Z,99.90
2023-03-27T08:08:57.069Z,99.90
2023-03-27T08:12:58.908Z,99.90
2023-03-27T08:17:14.466Z,99.90
2023-03-27T08:21:17.104Z,99.90
2023-03-27T08:25:19.446Z,99.90
2023-03-27T08:29:21.325Z,99.90
2023-03-27T08:33:23.508Z,99.90
2023-03-27T08:37:25.302Z,99.90
2023-03-27T08:41:38.791Z,99.90
2023-03-27T08:45:59.765Z,99.90
2023-03-27T08:50:05.725Z,99.90
2023-03-27T08:54:19.665Z,99.90
2023-03-27T08:58:22.009Z,99.90
2023-03-27T09:02:48.345Z,99.90
2023-03-27T09:06:59.664Z,99.90
2023-03-27T09:11:19.934Z,99.90
2023-03-27T09:15:32.219Z,99.90
2023-03-27T09:19:49.098Z,99.90
2023-03-27T09:23:55.473Z,99.90
2023-03-27T09:27:58.230Z,99.90
2023-03-27T09:32:00.117Z,99.90
2023-03-27T09:36:01.827Z,99.90
2023-03-27T09:40:07.653Z,99.90
2023-03-27T09:44:15.498Z,99.90
2023-03-27T09:48:53.082Z,99.90
2023-03-27T09:53:14.125Z,99.90
2023-03-27T09:57:16.007Z,99.90
2023-03-27T10:01:34.440Z,99.90
2023-03-27T10:05:36.969Z,99.90
2023-03-27T10:09:40.461Z,99.90
2023-03-27T10:13:50.442Z,99.90
2023-03-27T10:17:52.372Z,99.90
2023-03-27T10:21:56.319Z,99.90
2023-03-27T10:26:01.376Z,99.90
2023-03-27T10:30:23.093Z,99.90
2023-03-27T10:34:37.741Z,99.90
2023-03-27T10:38:42.323Z,99.90
2023-03-27T10:42:44.208Z,99.90
2023-03-27T10:46:46.476Z,99.90
2023-03-27T10:50:54.738Z,99.90
2023-03-27T10:55:23.640Z,99.90
2023-03-27T10:59:40.955Z,99.90
2023-03-27T11:03:57.498Z,99.90
2023-03-27T11:08:14.256Z,99.90
2023-03-27T11:12:18.807Z,99.90
2023-03-27T11:16:34.007Z,99.90
2023-03-27T11:20:47.185Z,99.90
2023-03-27T11:25:00.556Z,99.90
2023-03-27T11:29:22.864Z,99.90
2023-03-27T11:33:45.543Z,99.90
2023-03-27T11:37:53.680Z,99.90
2023-03-27T11:42:01.166Z,99.90
2023-03-27T11:46:20.877Z,99.90
2023-03-27T11:50:31.703Z,99.90
2023-03-27T11:54:48.659Z,99.90
2023-03-27T11:58:50.891Z,99.90
2023-03-27T12:03:09.268Z,99.90
2023-03-27T12:07:33.850Z,99.90
2023-03-27T12:11:47.231Z,97.40
2023-03-27T12:15:58.615Z,94.50
2023-03-27T12:20:20.532Z,95.00
2023-03-27T12:24:28.704Z,99.90
2023-03-27T12:29:01.768Z,99.90
2023-03-27T12:33:24.343Z,99.90
2023-03-27T12:38:00.632Z,99.90
2023-03-27T12:42:13.465Z,99.90
2023-03-27T12:46:24.213Z,99.90
2023-03-27T12:50:31.389Z,99.90
2023-03-27T12:54:36.072Z,99.90
2023-03-27T12:58:39.518Z,99.90
2023-03-27T13:02:41.398Z,99.90
2023-03-27T13:07:04.982Z,99.90
2023-03-27T13:11:24.621Z,97.90
2023-03-27T13:16:05.714Z,95.00
2023-03-27T13:20:28.533Z,92.60
2023-03-27T13:24:45.607Z,92.10
2023-03-27T13:28:52.610Z,94.80
2023-03-27T13:33:16.304Z,96.50
2023-03-27T13:37:17.991Z,99.90
2023-03-27T13:41:44.403Z,99.90
2023-03-27T13:45:57.314Z,99.90
2023-03-27T13:50:18.198Z,99.90
2023-03-27T13:54:46.994Z,99.90
2023-03-27T13:59:18.849Z,99.90
2023-03-27T14:04:01.392Z,99.90
2023-03-27T14:08:53.698Z,99.90
2023-03-27T14:13:19.549Z,99.90
2023-03-27T14:17:50.616Z,99.90
2023-03-27T14:22:02.266Z,99.90
2023-03-27T14:26:14.492Z,99.90
2023-03-27T14:30:20.322Z,99.90
2023-03-27T14:34:24.594Z,99.90
2023-03-27T14:38:33.599Z,99.90
2023-03-27T14:42:35.700Z,99.90
2023-03-27T14:46:37.521Z,99.90
2023-03-27T14:50:39.579Z,99.90
2023-03-27T14:54:54.363Z,99.90
2023-03-27T14:59:00.766Z,99.90
2023-03-27T15:03:16.040Z,99.90
2023-03-27T15:07:20.603Z,99.90
2023-03-27T15:11:25.206Z,99.90
2023-03-27T15:15:43.061Z,99.90
2023-03-27T15:20:10.221Z,99.90
2023-03-27T15:24:30.245Z,99.90
2023-03-27T15:29:01.530Z,99.90
2023-03-27T15:33:06.173Z,99.90
2023-03-27T15:37:19.292Z,99.90
2023-03-27T15:41:33.046Z,99.90
2023-03-27T15:45:39.711Z,99.90
2023-03-27T15:49:43.720Z,99.90
2023-03-27T15:53:47.840Z,99.90
2023-03-27T15:57:49.597Z,99.90
2023-03-27T16:02:01.135Z,99.90
2023-03-27T16:06:04.311Z,99.90
2023-03-27T16:10:07.427Z,99.90
2023-03-27T16:14:22.465Z,99.90
2023-03-27T16:18:32.182Z,99.90
2023-03-27T16:22:37.127Z,99.90
2023-03-27T16:26:38.846Z,99.90
2023-03-27T16:30:41.879Z,99.90
2023-03-27T16:34:44.200Z,99.90
2023-03-27T16:38:46.758Z,99.90
2023-03-27T16:42:48.374Z,99.90
2023-03-27T16:46:50.432Z,99.90
2023-03-27T16:50:52.074Z,99.90
2023-03-27T16:54:54.173Z,99.90
2023-03-27T16:58:55.986Z,99.90
2023-03-27T17:02:57.813Z,99.90
2023-03-27T17:06:59.460Z,99.90
2023-03-27T17:11:03.804Z,99.90
2023-03-27T17:15:06.497Z,99.90
2023-03-27T17:19:08.708Z,99.90
2023-03-27T17:23:11.558Z,99.90
2023-03-27T17:27:13.206Z,99.90
2023-03-27T17:31:15.526Z,99.90
2023-03-27T17:35:17.491Z,99.90
2023-03-27T17:39:19.247Z,99.90
2023-03-27T17:43:21.013Z,99.90
2023-03-27T17:47:22.745Z,99.90
2023-03-27T17:51:24.477Z,99.90
2023-03-27T17:55:26.144Z,99.90
2023-03-27T17:59:30.233Z,99.90
2023-03-27T18:03:31.972Z,99.90
2023-03-27T18:07:33.677Z,99.90
2023-03-27T18:11:35.359Z,99.90
2023-03-27T18:15:38.817Z,99.90
2023-03-27T18:19:40.732Z,99.90
2023-03-27T18:23:46.287Z,99.90
2023-03-27T18:27:48.646Z,99.90
2023-03-27T18:31:50.477Z,99.90
2023-03-27T18:35:56.767Z,99.90
2023-03-27T18:39:58.675Z,99.90
2023-03-27T18:44:00.548Z,99.90
2023-03-27T18:48:02.258Z,99.90
2023-03-27T18:52:04.126Z,99.90
2023-03-27T18:56:06.378Z,99.90
2023-03-27T19:00:08.930Z,99.90
2023-03-27T19:04:11.051Z,99.90
2023-03-27T19:08:13.650Z,99.90
2023-03-27T19:12:15.282Z,99.90
2023-03-27T19:16:16.918Z,99.90
2023-03-27T19:20:18.720Z,99.90
2023-03-27T19:24:20.603Z,99.90
2023-03-27T19:28:22.322Z,99.90
2023-03-27T19:32:24.168Z,99.90
2023-03-27T19:36:26.982Z,99.90
2023-03-27T19:40:28.874Z,99.90
2023-03-27T19:44:31.532Z,99.90
2023-03-27T19:48:33.150Z,99.90
2023-03-27T19:52:35.178Z,99.90
2023-03-27T19:56:36.939Z,99.90
2023-03-27T20:00:38.701Z,99.90
2023-03-27T20:04:40.394Z,99.90
2023-03-27T20:08:42.473Z,99.90
2023-03-27T20:12:44.235Z,99.90
2023-03-27T20:16:46.526Z,99.90
2023-03-27T20:20:50.095Z,99.90
2023-03-27T20:24:51.783Z,99.90
2023-03-27T20:28:53.542Z,99.90
2023-03-27T20:32:55.810Z,99.90
2023-03-27T20:36:58.858Z,99.90
2023-03-27T20:41:03.704Z,99.90
2023-03-27T20:45:06.625Z,99.90
2023-03-27T20:49:08.288Z,99.90
2023-03-27T20:53:10.792Z,99.90
2023-03-27T20:57:12.603Z,99.90
2023-03-27T21:01:14.766Z,99.90
2023-03-27T21:05:16.489Z,99.90
2023-03-27T21:09:18.134Z,99.90
2023-03-27T21:13:20.191Z,99.90
2023-03-27T21:17:21.936Z,99.90
2023-03-27T21:21:23.586Z,99.90
2023-03-27T21:25:25.409Z,99.90
2023-03-27T21:29:27.137Z,99.90
2023-03-27T21:33:29.046Z,99.90
2023-03-27T21:37:30.719Z,99.90
2023-03-27T21:41:32.482Z,99.90
2023-03-27T21:45:34.891Z,99.90
2023-03-27T21:49:37.504Z,99.90
2023-03-27T21:53:39.220Z,99.90
2023-03-27T21:57:41.074Z,99.90
2023-03-27T22:01:42.785Z,99.90
2023-03-27T22:05:49.193Z,99.90
2023-03-27T22:09:56.168Z,99.90
2023-03-27T22:13:59.101Z,99.90
2023-03-27T22:18:01.395Z,99.90
2023-03-27T22:22:03.106Z,99.90
2023-03-27T22:26:05.211Z,99.90
2023-03-27T22:30:08.389Z,99.90
2023-03-27T22:34:10.546Z,99.90
2023-03-27T22:38:12.273Z,99.90
2023-03-27T22:42:13.915Z,99.90
2023-03-27T22:46:18.895Z,99.90
2023-03-27T22:50:20.535Z,99.90
2023-03-27T22:54:22.224Z,99.90
2023-03-27T22:58:25.064Z,99.90
2023-03-27T23:02:26.815Z,99.90
2023-03-27T23:06:28.532Z,99.90
2023-03-27T23:10:30.182Z,99.90
2023-03-27T23:14:32.754Z,99.90
2023-03-27T23:18:34.702Z,99.90
2023-03-27T23:22:37.145Z,99.90
2023-03-27T23:26:38.778Z,99.90
2023-03-27T23:30:44.303Z,99.90
2023-03-27T23:34:45.958Z,99.90
2023-03-27T23:38:48.293Z,99.90
2023-03-27T23:42:49.895Z,99.90
2023-03-27T23:46:51.534Z,99.90
2023-03-27T23:50:53.350Z,99.90
2023-03-27T23:54:55.226Z,99.90
2023-03-27T23:58:56.927Z,99.90
